Malahat, Canada
Current Conditions -  °F | °C
As of 10:46 AM on Wednesday 26 Nov 2014 (Local Time) from CYYJ Reporting Station
Haze Haze  
Wind Chill: 48°   Ceiling: 7400
Heat Index: 48°   Visibility: 5mi
Dew Point: 48°   Wind: 3mph
Humidity: 100%   Direction: 160°SSE
Pressure: 30.04"   Gusts: NA
Location:  48.56°N, 123.56°W
Report Text: CYYJ 261846Z 16003KT 130V200 5SM BR FEW002 FEW058 BKN074 BKN150 09/09 A3004 RMK SF1SC2AC4AC1 SF TR VIS N 1 SLP171
Loading
Personal Weather Stations






























Interactive Weather Map New forecast layout! Learn more

10-Day Weather Forecast

Advertisements
Track Severe Weather on mobile